sensor_id;sensor_type;location;lat;lon;timestamp;P1;durP1;ratioP1;P2;durP2;ratioP2
75316;SDS011;63913;51.492;10.368;2023-09-12T00:00:39;7.75;;;3.90;;
75316;SDS011;63913;51.492;10.368;2023-09-12T00:03:05;12.13;;;4.45;;
75316;SDS011;63913;51.492;10.368;2023-09-12T00:05:30;9.13;;;3.90;;
75316;SDS011;63913;51.492;10.368;2023-09-12T00:07:56;6.55;;;3.90;;
75316;SDS011;63913;51.492;10.368;2023-09-12T00:10:21;7.85;;;3.95;;
75316;SDS011;63913;51.492;10.368;2023-09-12T00:12:46;7.22;;;4.47;;
75316;SDS011;63913;51.492;10.368;2023-09-12T00:15:12;10.25;;;4.20;;
75316;SDS011;63913;51.492;10.368;2023-09-12T00:17:37;11.63;;;4.45;;
75316;SDS011;63913;51.492;10.368;2023-09-12T00:20:03;9.68;;;4.03;;
75316;SDS011;63913;51.492;10.368;2023-09-12T00:22:31;8.98;;;3.65;;
75316;SDS011;63913;51.492;10.368;2023-09-12T00:24:56;12.70;;;4.80;;
75316;SDS011;63913;51.492;10.368;2023-09-12T00:27:22;9.52;;;3.85;;
75316;SDS011;63913;51.492;10.368;2023-09-12T00:29:47;11.40;;;4.03;;
75316;SDS011;63913;51.492;10.368;2023-09-12T00:32:12;11.38;;;4.32;;
75316;SDS011;63913;51.492;10.368;2023-09-12T00:34:38;7.20;;;3.85;;
75316;SDS011;63913;51.492;10.368;2023-09-12T00:37:03;10.20;;;4.28;;
75316;SDS011;63913;51.492;10.368;2023-09-12T00:39:29;6.65;;;3.53;;
75316;SDS011;63913;51.492;10.368;2023-09-12T00:41:55;9.38;;;4.10;;
75316;SDS011;63913;51.492;10.368;2023-09-12T00:44:21;8.52;;;3.67;;
75316;SDS011;63913;51.492;10.368;2023-09-12T00:46:46;9.68;;;4.05;;
75316;SDS011;63913;51.492;10.368;2023-09-12T00:49:14;9.10;;;4.63;;
75316;SDS011;63913;51.492;10.368;2023-09-12T00:51:41;10.77;;;4.13;;
75316;SDS011;63913;51.492;10.368;2023-09-12T00:54:07;7.70;;;3.85;;
75316;SDS011;63913;51.492;10.368;2023-09-12T00:56:33;7.28;;;3.92;;
75316;SDS011;63913;51.492;10.368;2023-09-12T00:59:00;10.07;;;4.80;;
75316;SDS011;63913;51.492;10.368;2023-09-12T01:01:26;6.97;;;3.72;;
75316;SDS011;63913;51.492;10.368;2023-09-12T01:03:51;9.93;;;4.15;;
75316;SDS011;63913;51.492;10.368;2023-09-12T01:06:18;10.05;;;3.95;;
75316;SDS011;63913;51.492;10.368;2023-09-12T01:08:46;7.30;;;3.80;;
75316;SDS011;63913;51.492;10.368;2023-09-12T01:11:12;10.65;;;3.80;;
75316;SDS011;63913;51.492;10.368;2023-09-12T01:13:39;8.00;;;3.80;;
75316;SDS011;63913;51.492;10.368;2023-09-12T01:16:05;10.15;;;4.38;;
75316;SDS011;63913;51.492;10.368;2023-09-12T01:18:34;10.77;;;4.07;;
75316;SDS011;63913;51.492;10.368;2023-09-12T01:29:09;5.72;;;4.10;;
75316;SDS011;63913;51.492;10.368;2023-09-12T01:31:38;6.60;;;3.92;;
75316;SDS011;63913;51.492;10.368;2023-09-12T01:34:11;7.55;;;4.05;;
75316;SDS011;63913;51.492;10.368;2023-09-12T01:36:37;9.35;;;4.20;;
75316;SDS011;63913;51.492;10.368;2023-09-12T01:39:03;10.13;;;4.38;;
75316;SDS011;63913;51.492;10.368;2023-09-12T01:41:29;11.57;;;4.88;;
75316;SDS011;63913;51.492;10.368;2023-09-12T01:43:57;9.88;;;3.60;;
75316;SDS011;63913;51.492;10.368;2023-09-12T01:46:25;9.73;;;4.28;;
75316;SDS011;63913;51.492;10.368;2023-09-12T01:48:52;12.80;;;4.50;;
75316;SDS011;63913;51.492;10.368;2023-09-12T01:51:21;10.25;;;4.13;;
75316;SDS011;63913;51.492;10.368;2023-09-12T01:53:47;9.52;;;4.10;;
75316;SDS011;63913;51.492;10.368;2023-09-12T01:56:14;9.85;;;3.67;;
75316;SDS011;63913;51.492;10.368;2023-09-12T01:58:40;8.52;;;4.70;;
75316;SDS011;63913;51.492;10.368;2023-09-12T02:01:06;8.02;;;3.70;;
75316;SDS011;63913;51.492;10.368;2023-09-12T02:03:31;9.85;;;4.13;;
75316;SDS011;63913;51.492;10.368;2023-09-12T02:05:56;8.70;;;4.30;;
75316;SDS011;63913;51.492;10.368;2023-09-12T02:08:22;7.32;;;3.83;;
75316;SDS011;63913;51.492;10.368;2023-09-12T02:10:47;10.38;;;4.32;;
75316;SDS011;63913;51.492;10.368;2023-09-12T02:13:13;11.75;;;4.05;;
75316;SDS011;63913;51.492;10.368;2023-09-12T02:15:38;8.63;;;4.22;;
75316;SDS011;63913;51.492;10.368;2023-09-12T02:18:04;11.68;;;4.30;;
75316;SDS011;63913;51.492;10.368;2023-09-12T02:20:29;6.43;;;3.78;;
75316;SDS011;63913;51.492;10.368;2023-09-12T02:22:55;9.60;;;3.70;;
75316;SDS011;63913;51.492;10.368;2023-09-12T02:25:20;8.30;;;3.92;;
75316;SDS011;63913;51.492;10.368;2023-09-12T02:27:46;7.43;;;4.38;;
75316;SDS011;63913;51.492;10.368;2023-09-12T02:30:12;11.25;;;3.90;;
75316;SDS011;63913;51.492;10.368;2023-09-12T02:32:38;10.10;;;4.00;;
75316;SDS011;63913;51.492;10.368;2023-09-12T02:35:03;8.68;;;3.70;;
75316;SDS011;63913;51.492;10.368;2023-09-12T02:37:29;9.00;;;3.83;;
75316;SDS011;63913;51.492;10.368;2023-09-12T02:39:54;7.63;;;4.45;;
75316;SDS011;63913;51.492;10.368;2023-09-12T02:42:20;11.45;;;4.10;;
75316;SDS011;63913;51.492;10.368;2023-09-12T02:44:46;7.72;;;3.97;;
75316;SDS011;63913;51.492;10.368;2023-09-12T02:47:12;7.78;;;3.63;;
75316;SDS011;63913;51.492;10.368;2023-09-12T02:49:38;10.15;;;4.32;;
75316;SDS011;63913;51.492;10.368;2023-09-12T02:52:04;10.88;;;4.43;;
75316;SDS011;63913;51.492;10.368;2023-09-12T02:54:29;11.13;;;3.83;;
75316;SDS011;63913;51.492;10.368;2023-09-12T02:56:55;10.00;;;4.40;;
75316;SDS011;63913;51.492;10.368;2023-09-12T02:59:20;9.55;;;4.32;;
75316;SDS011;63913;51.492;10.368;2023-09-12T03:01:46;9.15;;;4.18;;
75316;SDS011;63913;51.492;10.368;2023-09-12T03:04:11;10.95;;;4.15;;
75316;SDS011;63913;51.492;10.368;2023-09-12T03:06:36;11.60;;;4.80;;
75316;SDS011;63913;51.492;10.368;2023-09-12T03:09:02;9.27;;;3.97;;
75316;SDS011;63913;51.492;10.368;2023-09-12T03:11:28;7.63;;;4.28;;
75316;SDS011;63913;51.492;10.368;2023-09-12T03:13:55;9.60;;;3.75;;
75316;SDS011;63913;51.492;10.368;2023-09-12T03:16:21;8.82;;;3.95;;
75316;SDS011;63913;51.492;10.368;2023-09-12T03:18:48;8.10;;;4.13;;
75316;SDS011;63913;51.492;10.368;2023-09-12T03:21:13;10.40;;;4.82;;
75316;SDS011;63913;51.492;10.368;2023-09-12T03:23:39;12.90;;;4.05;;
75316;SDS011;63913;51.492;10.368;2023-09-12T03:26:05;7.63;;;3.92;;
75316;SDS011;63913;51.492;10.368;2023-09-12T03:28:32;8.23;;;4.10;;
75316;SDS011;63913;51.492;10.368;2023-09-12T03:31:05;7.18;;;4.00;;
75316;SDS011;63913;51.492;10.368;2023-09-12T03:33:33;7.10;;;3.65;;
75316;SDS011;63913;51.492;10.368;2023-09-12T03:35:59;8.52;;;4.43;;
75316;SDS011;63913;51.492;10.368;2023-09-12T03:38:24;9.00;;;4.00;;
75316;SDS011;63913;51.492;10.368;2023-09-12T03:40:50;8.32;;;4.40;;
75316;SDS011;63913;51.492;10.368;2023-09-12T03:43:15;7.18;;;4.25;;
75316;SDS011;63913;51.492;10.368;2023-09-12T03:45:41;7.05;;;3.67;;
75316;SDS011;63913;51.492;10.368;2023-09-12T03:48:07;9.20;;;4.03;;
75316;SDS011;63913;51.492;10.368;2023-09-12T03:50:33;7.70;;;3.85;;
75316;SDS011;63913;51.492;10.368;2023-09-12T03:52:58;10.10;;;4.38;;
75316;SDS011;63913;51.492;10.368;2023-09-12T03:55:23;7.90;;;3.63;;
75316;SDS011;63913;51.492;10.368;2023-09-12T03:57:49;9.35;;;4.32;;
75316;SDS011;63913;51.492;10.368;2023-09-12T04:00:15;11.25;;;4.22;;
75316;SDS011;63913;51.492;10.368;2023-09-12T04:02:44;8.38;;;4.22;;
75316;SDS011;63913;51.492;10.368;2023-09-12T04:05:10;9.85;;;4.30;;
75316;SDS011;63913;51.492;10.368;2023-09-12T04:07:35;9.98;;;4.07;;
75316;SDS011;63913;51.492;10.368;2023-09-12T04:10:01;10.38;;;4.35;;
75316;SDS011;63913;51.492;10.368;2023-09-12T04:12:26;9.77;;;4.43;;
75316;SDS011;63913;51.492;10.368;2023-09-12T04:14:52;7.70;;;4.25;;
75316;SDS011;63913;51.492;10.368;2023-09-12T04:17:17;10.10;;;4.80;;
75316;SDS011;63913;51.492;10.368;2023-09-12T04:19:43;8.00;;;3.80;;
75316;SDS011;63913;51.492;10.368;2023-09-12T04:22:08;10.75;;;4.30;;
75316;SDS011;63913;51.492;10.368;2023-09-12T04:24:34;8.15;;;4.20;;
75316;SDS011;63913;51.492;10.368;2023-09-12T04:26:59;9.32;;;3.88;;
75316;SDS011;63913;51.492;10.368;2023-09-12T04:29:24;12.65;;;4.85;;
75316;SDS011;63913;51.492;10.368;2023-09-12T04:31:50;9.55;;;4.38;;
75316;SDS011;63913;51.492;10.368;2023-09-12T04:34:17;6.35;;;3.97;;
75316;SDS011;63913;51.492;10.368;2023-09-12T04:36:43;12.90;;;4.18;;
75316;SDS011;63913;51.492;10.368;2023-09-12T04:39:09;10.18;;;4.50;;
75316;SDS011;63913;51.492;10.368;2023-09-12T04:41:34;8.48;;;4.18;;
75316;SDS011;63913;51.492;10.368;2023-09-12T04:44:00;8.30;;;4.32;;
75316;SDS011;63913;51.492;10.368;2023-09-12T04:46:27;10.52;;;4.28;;
75316;SDS011;63913;51.492;10.368;2023-09-12T04:48:53;8.93;;;4.50;;
75316;SDS011;63913;51.492;10.368;2023-09-12T04:51:18;9.00;;;4.95;;
75316;SDS011;63913;51.492;10.368;2023-09-12T04:53:44;13.30;;;4.32;;
75316;SDS011;63913;51.492;10.368;2023-09-12T04:56:09;9.38;;;3.85;;
75316;SDS011;63913;51.492;10.368;2023-09-12T04:58:35;8.18;;;4.28;;
75316;SDS011;63913;51.492;10.368;2023-09-12T05:01:01;8.77;;;3.95;;
75316;SDS011;63913;51.492;10.368;2023-09-12T05:03:27;7.65;;;4.38;;
75316;SDS011;63913;51.492;10.368;2023-09-12T05:05:52;9.90;;;4.00;;
75316;SDS011;63913;51.492;10.368;2023-09-12T05:08:18;10.73;;;4.40;;
75316;SDS011;63913;51.492;10.368;2023-09-12T05:10:44;11.20;;;3.97;;
75316;SDS011;63913;51.492;10.368;2023-09-12T05:13:10;8.73;;;4.50;;
75316;SDS011;63913;51.492;10.368;2023-09-12T05:15:36;7.07;;;3.90;;
75316;SDS011;63913;51.492;10.368;2023-09-12T05:18:04;7.57;;;4.15;;
75316;SDS011;63913;51.492;10.368;2023-09-12T05:20:32;7.65;;;4.28;;
75316;SDS011;63913;51.492;10.368;2023-09-12T05:22:58;8.07;;;4.60;;
75316;SDS011;63913;51.492;10.368;2023-09-12T05:25:24;10.20;;;4.13;;
75316;SDS011;63913;51.492;10.368;2023-09-12T05:27:49;12.10;;;4.68;;
75316;SDS011;63913;51.492;10.368;2023-09-12T05:30:15;10.80;;;3.97;;
75316;SDS011;63913;51.492;10.368;2023-09-12T05:32:41;7.03;;;4.50;;
75316;SDS011;63913;51.492;10.368;2023-09-12T05:35:07;6.97;;;4.50;;
75316;SDS011;63913;51.492;10.368;2023-09-12T05:37:32;11.05;;;6.35;;
75316;SDS011;63913;51.492;10.368;2023-09-12T05:39:58;10.38;;;5.45;;
75316;SDS011;63913;51.492;10.368;2023-09-12T05:42:23;9.40;;;4.43;;
75316;SDS011;63913;51.492;10.368;2023-09-12T05:44:49;7.72;;;4.15;;
75316;SDS011;63913;51.492;10.368;2023-09-12T05:47:15;11.07;;;4.22;;
75316;SDS011;63913;51.492;10.368;2023-09-12T05:49:41;10.15;;;4.70;;
75316;SDS011;63913;51.492;10.368;2023-09-12T05:52:06;7.55;;;3.90;;
75316;SDS011;63913;51.492;10.368;2023-09-12T05:54:32;11.20;;;4.82;;
75316;SDS011;63913;51.492;10.368;2023-09-12T05:56:57;11.57;;;4.80;;
75316;SDS011;63913;51.492;10.368;2023-09-12T05:59:23;9.98;;;4.55;;
75316;SDS011;63913;51.492;10.368;2023-09-12T06:01:48;9.82;;;4.57;;
75316;SDS011;63913;51.492;10.368;2023-09-12T06:04:14;9.15;;;4.38;;
75316;SDS011;63913;51.492;10.368;2023-09-12T06:06:39;7.13;;;3.83;;
75316;SDS011;63913;51.492;10.368;2023-09-12T06:09:05;6.35;;;4.10;;
75316;SDS011;63913;51.492;10.368;2023-09-12T06:11:31;12.40;;;4.45;;
75316;SDS011;63913;51.492;10.368;2023-09-12T06:13:56;8.10;;;4.30;;
75316;SDS011;63913;51.492;10.368;2023-09-12T06:16:22;9.18;;;4.43;;
75316;SDS011;63913;51.492;10.368;2023-09-12T06:18:47;7.45;;;4.22;;
75316;SDS011;63913;51.492;10.368;2023-09-12T06:21:13;7.05;;;4.68;;
75316;SDS011;63913;51.492;10.368;2023-09-12T06:23:39;7.78;;;4.68;;
75316;SDS011;63913;51.492;10.368;2023-09-12T06:26:04;9.23;;;4.55;;
75316;SDS011;63913;51.492;10.368;2023-09-12T06:28:32;8.38;;;4.28;;
75316;SDS011;63913;51.492;10.368;2023-09-12T06:30:58;7.40;;;4.13;;
75316;SDS011;63913;51.492;10.368;2023-09-12T06:33:26;11.40;;;4.25;;
75316;SDS011;63913;51.492;10.368;2023-09-12T06:35:52;9.10;;;5.10;;
75316;SDS011;63913;51.492;10.368;2023-09-12T06:38:21;11.35;;;5.38;;
75316;SDS011;63913;51.492;10.368;2023-09-12T06:40:47;8.45;;;4.20;;
75316;SDS011;63913;51.492;10.368;2023-09-12T06:43:13;10.00;;;4.40;;
75316;SDS011;63913;51.492;10.368;2023-09-12T06:45:40;9.52;;;4.55;;
75316;SDS011;63913;51.492;10.368;2023-09-12T06:48:06;8.32;;;4.35;;
75316;SDS011;63913;51.492;10.368;2023-09-12T06:50:31;8.98;;;5.00;;
75316;SDS011;63913;51.492;10.368;2023-09-12T06:52:57;12.43;;;5.53;;
75316;SDS011;63913;51.492;10.368;2023-09-12T06:55:22;11.07;;;6.18;;
75316;SDS011;63913;51.492;10.368;2023-09-12T06:57:49;13.00;;;7.18;;
75316;SDS011;63913;51.492;10.368;2023-09-12T07:00:14;12.45;;;6.20;;
75316;SDS011;63913;51.492;10.368;2023-09-12T07:02:40;10.65;;;7.60;;
75316;SDS011;63913;51.492;10.368;2023-09-12T07:05:05;13.15;;;7.55;;
75316;SDS011;63913;51.492;10.368;2023-09-12T07:07:31;15.38;;;8.13;;
75316;SDS011;63913;51.492;10.368;2023-09-12T07:09:57;12.57;;;7.78;;
75316;SDS011;63913;51.492;10.368;2023-09-12T07:12:22;15.23;;;7.22;;
75316;SDS011;63913;51.492;10.368;2023-09-12T07:14:48;11.50;;;7.95;;
75316;SDS011;63913;51.492;10.368;2023-09-12T07:17:15;15.98;;;7.57;;
75316;SDS011;63913;51.492;10.368;2023-09-12T07:19:42;13.07;;;7.00;;
75316;SDS011;63913;51.492;10.368;2023-09-12T07:22:08;12.90;;;7.68;;
75316;SDS011;63913;51.492;10.368;2023-09-12T07:24:33;12.88;;;7.70;;
75316;SDS011;63913;51.492;10.368;2023-09-12T07:26:58;14.13;;;7.38;;
75316;SDS011;63913;51.492;10.368;2023-09-12T07:29:24;13.40;;;7.03;;
75316;SDS011;63913;51.492;10.368;2023-09-12T07:31:51;12.80;;;7.30;;
75316;SDS011;63913;51.492;10.368;2023-09-12T07:34:18;11.23;;;7.00;;
75316;SDS011;63913;51.492;10.368;2023-09-12T07:36:45;10.30;;;6.93;;
75316;SDS011;63913;51.492;10.368;2023-09-12T07:39:10;11.07;;;7.10;;
75316;SDS011;63913;51.492;10.368;2023-09-12T07:41:36;15.77;;;7.60;;
75316;SDS011;63913;51.492;10.368;2023-09-12T07:44:01;14.23;;;7.68;;
75316;SDS011;63913;51.492;10.368;2023-09-12T07:46:29;13.10;;;7.47;;
75316;SDS011;63913;51.492;10.368;2023-09-12T07:48:55;11.00;;;6.85;;
75316;SDS011;63913;51.492;10.368;2023-09-12T07:51:21;13.05;;;7.70;;
75316;SDS011;63913;51.492;10.368;2023-09-12T07:53:48;12.38;;;7.00;;
75316;SDS011;63913;51.492;10.368;2023-09-12T07:56:13;10.55;;;6.55;;
75316;SDS011;63913;51.492;10.368;2023-09-12T07:58:39;12.30;;;7.32;;
75316;SDS011;63913;51.492;10.368;2023-09-12T08:01:05;9.85;;;6.53;;
75316;SDS011;63913;51.492;10.368;2023-09-12T08:03:32;10.38;;;6.40;;
75316;SDS011;63913;51.492;10.368;2023-09-12T08:05:58;13.32;;;7.32;;
75316;SDS011;63913;51.492;10.368;2023-09-12T08:08:24;14.55;;;6.85;;
75316;SDS011;63913;51.492;10.368;2023-09-12T08:10:50;13.55;;;6.38;;
75316;SDS011;63913;51.492;10.368;2023-09-12T08:13:15;13.70;;;6.15;;
75316;SDS011;63913;51.492;10.368;2023-09-12T08:15:40;9.23;;;5.25;;
75316;SDS011;63913;51.492;10.368;2023-09-12T08:18:06;12.30;;;5.82;;
75316;SDS011;63913;51.492;10.368;2023-09-12T08:20:31;25.77;;;5.90;;
75316;SDS011;63913;51.492;10.368;2023-09-12T08:22:56;10.48;;;5.85;;
75316;SDS011;63913;51.492;10.368;2023-09-12T08:25:22;14.05;;;5.65;;
75316;SDS011;63913;51.492;10.368;2023-09-12T08:27:48;11.50;;;5.88;;
75316;SDS011;63913;51.492;10.368;2023-09-12T08:30:13;11.65;;;5.50;;
75316;SDS011;63913;51.492;10.368;2023-09-12T08:32:39;11.93;;;6.13;;
75316;SDS011;63913;51.492;10.368;2023-09-12T08:35:09;10.55;;;5.43;;
75316;SDS011;63913;51.492;10.368;2023-09-12T08:37:35;9.68;;;4.88;;
75316;SDS011;63913;51.492;10.368;2023-09-12T08:40:01;10.05;;;5.30;;
75316;SDS011;63913;51.492;10.368;2023-09-12T08:42:26;9.70;;;5.32;;
75316;SDS011;63913;51.492;10.368;2023-09-12T08:44:55;7.10;;;4.95;;
75316;SDS011;63913;51.492;10.368;2023-09-12T08:47:22;11.07;;;4.95;;
75316;SDS011;63913;51.492;10.368;2023-09-12T08:49:49;9.45;;;4.45;;
75316;SDS011;63913;51.492;10.368;2023-09-12T08:52:14;7.95;;;4.60;;
75316;SDS011;63913;51.492;10.368;2023-09-12T08:54:39;9.55;;;4.63;;
75316;SDS011;63913;51.492;10.368;2023-09-12T08:57:05;10.50;;;4.65;;
75316;SDS011;63913;51.492;10.368;2023-09-12T08:59:32;8.00;;;4.57;;
75316;SDS011;63913;51.492;10.368;2023-09-12T09:01:59;10.80;;;4.85;;
75316;SDS011;63913;51.492;10.368;2023-09-12T09:04:28;7.78;;;5.00;;
75316;SDS011;63913;51.492;10.368;2023-09-12T09:06:56;9.15;;;5.05;;
75316;SDS011;63913;51.492;10.368;2023-09-12T09:09:23;9.55;;;5.03;;
75316;SDS011;63913;51.492;10.368;2023-09-12T09:11:49;7.18;;;4.35;;
75316;SDS011;63913;51.492;10.368;2023-09-12T09:14:15;9.00;;;4.80;;
75316;SDS011;63913;51.492;10.368;2023-09-12T09:16:40;8.85;;;5.00;;
75316;SDS011;63913;51.492;10.368;2023-09-12T09:19:06;11.82;;;4.70;;
75316;SDS011;63913;51.492;10.368;2023-09-12T09:21:35;9.20;;;4.97;;
75316;SDS011;63913;51.492;10.368;2023-09-12T09:24:08;6.57;;;4.45;;
75316;SDS011;63913;51.492;10.368;2023-09-12T09:26:42;9.88;;;5.28;;
75316;SDS011;63913;51.492;10.368;2023-09-12T09:29:15;7.15;;;4.40;;
75316;SDS011;63913;51.492;10.368;2023-09-12T09:31:43;6.28;;;3.70;;
75316;SDS011;63913;51.492;10.368;2023-09-12T09:34:10;7.30;;;4.28;;
75316;SDS011;63913;51.492;10.368;2023-09-12T09:36:40;6.43;;;3.85;;
75316;SDS011;63913;51.492;10.368;2023-09-12T09:39:06;6.75;;;3.67;;
75316;SDS011;63913;51.492;10.368;2023-09-12T09:41:33;4.45;;;3.60;;
75316;SDS011;63913;51.492;10.368;2023-09-12T09:43:58;7.38;;;4.43;;
75316;SDS011;63913;51.492;10.368;2023-09-12T09:46:25;5.13;;;3.22;;
75316;SDS011;63913;51.492;10.368;2023-09-12T09:48:51;4.55;;;3.83;;
75316;SDS011;63913;51.492;10.368;2023-09-12T09:51:17;4.85;;;3.00;;
75316;SDS011;63913;51.492;10.368;2023-09-12T09:53:45;5.53;;;3.72;;
75316;SDS011;63913;51.492;10.368;2023-09-12T09:56:14;6.68;;;3.20;;
75316;SDS011;63913;51.492;10.368;2023-09-12T09:58:55;5.88;;;2.88;;
75316;SDS011;63913;51.492;10.368;2023-09-12T10:01:22;8.00;;;3.47;;
75316;SDS011;63913;51.492;10.368;2023-09-12T10:03:49;4.47;;;3.03;;
75316;SDS011;63913;51.492;10.368;2023-09-12T10:06:16;5.18;;;3.13;;
75316;SDS011;63913;51.492;10.368;2023-09-12T10:08:43;4.90;;;2.88;;
75316;SDS011;63913;51.492;10.368;2023-09-12T10:11:11;5.50;;;3.00;;
75316;SDS011;63913;51.492;10.368;2023-09-12T10:13:41;7.72;;;3.40;;
75316;SDS011;63913;51.492;10.368;2023-09-12T10:16:12;5.25;;;3.25;;
75316;SDS011;63913;51.492;10.368;2023-09-12T10:18:39;8.48;;;3.40;;
75316;SDS011;63913;51.492;10.368;2023-09-12T10:21:15;4.93;;;3.15;;
75316;SDS011;63913;51.492;10.368;2023-09-12T10:23:47;6.00;;;3.53;;
75316;SDS011;63913;51.492;10.368;2023-09-12T10:26:16;4.88;;;3.20;;
75316;SDS011;63913;51.492;10.368;2023-09-12T10:28:42;6.68;;;3.10;;
75316;SDS011;63913;51.492;10.368;2023-09-12T10:31:10;5.25;;;3.17;;
75316;SDS011;63913;51.492;10.368;2023-09-12T10:33:38;5.82;;;3.55;;
75316;SDS011;63913;51.492;10.368;2023-09-12T10:36:04;8.00;;;3.38;;
75316;SDS011;63913;51.492;10.368;2023-09-12T10:38:32;6.97;;;3.42;;
75316;SDS011;63913;51.492;10.368;2023-09-12T10:40:59;4.68;;;3.22;;
75316;SDS011;63913;51.492;10.368;2023-09-12T10:43:26;3.50;;;3.10;;
75316;SDS011;63913;51.492;10.368;2023-09-12T10:45:51;5.78;;;2.92;;
75316;SDS011;63913;51.492;10.368;2023-09-12T10:48:17;7.88;;;3.28;;
75316;SDS011;63913;51.492;10.368;2023-09-12T10:50:43;3.75;;;2.53;;
75316;SDS011;63913;51.492;10.368;2023-09-12T10:53:14;8.25;;;3.70;;
75316;SDS011;63913;51.492;10.368;2023-09-12T10:55:41;4.03;;;3.00;;
75316;SDS011;63913;51.492;10.368;2023-09-12T10:58:10;4.93;;;3.10;;
75316;SDS011;63913;51.492;10.368;2023-09-12T11:00:36;4.00;;;2.80;;
75316;SDS011;63913;51.492;10.368;2023-09-12T11:05:54;8.10;;;3.90;;
75316;SDS011;63913;51.492;10.368;2023-09-12T11:08:21;5.78;;;3.38;;
75316;SDS011;63913;51.492;10.368;2023-09-12T11:13:46;4.10;;;3.30;;
75316;SDS011;63913;51.492;10.368;2023-09-12T11:16:27;5.97;;;3.55;;
75316;SDS011;63913;51.492;10.368;2023-09-12T11:21:36;8.80;;;3.80;;
75316;SDS011;63913;51.492;10.368;2023-09-12T11:24:02;6.03;;;3.40;;
75316;SDS011;63913;51.492;10.368;2023-09-12T11:26:29;4.97;;;3.60;;
75316;SDS011;63913;51.492;10.368;2023-09-12T11:28:54;6.63;;;3.55;;
75316;SDS011;63913;51.492;10.368;2023-09-12T11:31:26;6.45;;;3.42;;
75316;SDS011;63913;51.492;10.368;2023-09-12T11:33:52;9.50;;;4.00;;
75316;SDS011;63913;51.492;10.368;2023-09-12T11:36:18;6.50;;;4.38;;
75316;SDS011;63913;51.492;10.368;2023-09-12T11:38:44;7.35;;;3.35;;
75316;SDS011;63913;51.492;10.368;2023-09-12T11:41:14;6.03;;;4.15;;
75316;SDS011;63913;51.492;10.368;2023-09-12T11:44:01;6.72;;;3.97;;
75316;SDS011;63913;51.492;10.368;2023-09-12T11:46:29;3.60;;;2.88;;
75316;SDS011;63913;51.492;10.368;2023-09-12T11:48:54;5.40;;;2.70;;
75316;SDS011;63913;51.492;10.368;2023-09-12T11:51:21;6.68;;;3.40;;
75316;SDS011;63913;51.492;10.368;2023-09-12T11:53:52;5.63;;;3.03;;
75316;SDS011;63913;51.492;10.368;2023-09-12T11:56:18;6.95;;;3.25;;
75316;SDS011;63913;51.492;10.368;2023-09-12T11:58:44;6.40;;;3.40;;
75316;SDS011;63913;51.492;10.368;2023-09-12T12:01:11;4.65;;;3.25;;
75316;SDS011;63913;51.492;10.368;2023-09-12T12:03:38;12.32;;;8.25;;
75316;SDS011;63913;51.492;10.368;2023-09-12T12:06:04;6.35;;;4.93;;
75316;SDS011;63913;51.492;10.368;2023-09-12T12:08:31;10.23;;;3.67;;
75316;SDS011;63913;51.492;10.368;2023-09-12T12:10:57;5.88;;;3.47;;
75316;SDS011;63913;51.492;10.368;2023-09-12T12:13:23;5.40;;;3.92;;
75316;SDS011;63913;51.492;10.368;2023-09-12T12:15:49;11.13;;;4.15;;
75316;SDS011;63913;51.492;10.368;2023-09-12T12:18:15;8.25;;;4.00;;
75316;SDS011;63913;51.492;10.368;2023-09-12T12:20:41;7.30;;;3.63;;
75316;SDS011;63913;51.492;10.368;2023-09-12T12:23:07;6.68;;;4.00;;
75316;SDS011;63913;51.492;10.368;2023-09-12T12:25:33;5.68;;;3.78;;
75316;SDS011;63913;51.492;10.368;2023-09-12T12:28:00;5.10;;;4.10;;
75316;SDS011;63913;51.492;10.368;2023-09-12T12:30:29;9.13;;;3.40;;
75316;SDS011;63913;51.492;10.368;2023-09-12T12:32:55;7.13;;;3.33;;
75316;SDS011;63913;51.492;10.368;2023-09-12T12:35:21;3.97;;;3.00;;
75316;SDS011;63913;51.492;10.368;2023-09-12T12:37:49;6.03;;;3.60;;
75316;SDS011;63913;51.492;10.368;2023-09-12T12:40:15;8.25;;;3.72;;
75316;SDS011;63913;51.492;10.368;2023-09-12T12:42:44;8.68;;;3.78;;
75316;SDS011;63913;51.492;10.368;2023-09-12T12:45:13;7.00;;;3.42;;
75316;SDS011;63913;51.492;10.368;2023-09-12T12:47:40;8.98;;;5.28;;
75316;SDS011;63913;51.492;10.368;2023-09-12T12:50:12;5.53;;;3.33;;
75316;SDS011;63913;51.492;10.368;2023-09-12T12:52:39;4.57;;;3.72;;
75316;SDS011;63913;51.492;10.368;2023-09-12T12:55:06;6.88;;;3.38;;
75316;SDS011;63913;51.492;10.368;2023-09-12T12:57:39;9.68;;;4.13;;
75316;SDS011;63913;51.492;10.368;2023-09-12T13:00:08;13.25;;;4.53;;
75316;SDS011;63913;51.492;10.368;2023-09-12T13:02:36;6.10;;;3.50;;
75316;SDS011;63913;51.492;10.368;2023-09-12T13:05:02;5.13;;;3.75;;
75316;SDS011;63913;51.492;10.368;2023-09-12T13:07:28;6.57;;;3.92;;
75316;SDS011;63913;51.492;10.368;2023-09-12T13:09:54;5.45;;;3.42;;
75316;SDS011;63913;51.492;10.368;2023-09-12T13:12:19;5.30;;;4.07;;
75316;SDS011;63913;51.492;10.368;2023-09-12T13:14:44;5.03;;;3.92;;
75316;SDS011;63913;51.492;10.368;2023-09-12T13:17:10;4.22;;;3.58;;
75316;SDS011;63913;51.492;10.368;2023-09-12T13:19:35;5.60;;;3.65;;
75316;SDS011;63913;51.492;10.368;2023-09-12T13:22:01;7.07;;;3.47;;
75316;SDS011;63913;51.492;10.368;2023-09-12T13:24:27;5.43;;;3.38;;
75316;SDS011;63913;51.492;10.368;2023-09-12T13:26:53;7.88;;;4.10;;
75316;SDS011;63913;51.492;10.368;2023-09-12T13:29:19;4.82;;;3.65;;
75316;SDS011;63913;51.492;10.368;2023-09-12T13:31:44;5.70;;;3.83;;
75316;SDS011;63913;51.492;10.368;2023-09-12T13:34:10;4.90;;;3.70;;
75316;SDS011;63913;51.492;10.368;2023-09-12T13:36:36;7.72;;;3.85;;
75316;SDS011;63913;51.492;10.368;2023-09-12T13:39:01;6.03;;;3.60;;
75316;SDS011;63913;51.492;10.368;2023-09-12T13:41:27;6.45;;;3.53;;
75316;SDS011;63913;51.492;10.368;2023-09-12T13:43:53;8.30;;;3.75;;
75316;SDS011;63913;51.492;10.368;2023-09-12T13:46:18;6.00;;;3.47;;
75316;SDS011;63913;51.492;10.368;2023-09-12T13:48:43;5.80;;;3.45;;
75316;SDS011;63913;51.492;10.368;2023-09-12T13:51:09;4.72;;;3.63;;
75316;SDS011;63913;51.492;10.368;2023-09-12T13:53:34;7.85;;;4.10;;
75316;SDS011;63913;51.492;10.368;2023-09-12T13:55:59;6.60;;;4.57;;
75316;SDS011;63913;51.492;10.368;2023-09-12T13:58:26;9.07;;;3.92;;
75316;SDS011;63913;51.492;10.368;2023-09-12T14:00:52;6.13;;;3.85;;
75316;SDS011;63913;51.492;10.368;2023-09-12T14:03:17;6.22;;;3.63;;
75316;SDS011;63913;51.492;10.368;2023-09-12T14:05:42;5.25;;;3.30;;
75316;SDS011;63913;51.492;10.368;2023-09-12T14:08:08;5.43;;;3.55;;
75316;SDS011;63913;51.492;10.368;2023-09-12T14:10:33;8.18;;;4.10;;
75316;SDS011;63913;51.492;10.368;2023-09-12T14:12:59;13.23;;;3.70;;
75316;SDS011;63913;51.492;10.368;2023-09-12T14:15:24;12.88;;;3.97;;
75316;SDS011;63913;51.492;10.368;2023-09-12T14:17:51;5.40;;;3.60;;
75316;SDS011;63913;51.492;10.368;2023-09-12T14:20:16;5.35;;;3.60;;
75316;SDS011;63913;51.492;10.368;2023-09-12T14:22:42;6.72;;;3.70;;
75316;SDS011;63913;51.492;10.368;2023-09-12T14:25:08;8.57;;;3.90;;
75316;SDS011;63913;51.492;10.368;2023-09-12T14:27:39;7.18;;;3.83;;
75316;SDS011;63913;51.492;10.368;2023-09-12T14:30:05;7.03;;;4.35;;
75316;SDS011;63913;51.492;10.368;2023-09-12T14:32:31;6.40;;;3.50;;
75316;SDS011;63913;51.492;10.368;2023-09-12T14:34:57;11.30;;;3.88;;
75316;SDS011;63913;51.492;10.368;2023-09-12T14:37:22;8.35;;;3.88;;
75316;SDS011;63913;51.492;10.368;2023-09-12T14:39:52;5.03;;;3.30;;
75316;SDS011;63913;51.492;10.368;2023-09-12T14:42:17;5.47;;;3.35;;